Time;durP1;ratioP1;P1;durP2;ratioP2;P2;SDS_P1;SDS_P2;PMS_P1;PMS_P2;Temp;Humidity;BMP_temperature;BMP_pressure;BME280_temperature;BME280_humidity;BME280_pressure;Samples;Min_cycle;Max_cycle;Signal;HPM_P1;HPM_P2
2021/12/05 03:51:17;;;;;;;36.00;22.92;;;3.70;99.90;;;;;;4708739;30;20045;-82
2021/12/05 03:53:44;;;;;;;39.92;23.95;;;3.80;99.90;;;;;;4694391;30;20048;-82
2021/12/05 03:56:10;;;;;;;43.40;25.67;;;3.80;99.90;;;;;;4677079;30;20080;-82
2021/12/05 03:58:39;;;;;;;38.75;24.42;;;3.80;99.90;;;;;;4656172;30;20045;-82
2021/12/05 04:01:09;;;;;;;44.17;24.92;;;3.80;99.90;;;;;;4680748;30;20029;-82
2021/12/05 04:03:38;;;;;;;42.17;26.77;;;3.80;99.90;;;;;;4694493;30;20037;-82
2021/12/05 04:06:06;;;;;;;41.70;25.02;;;3.90;99.90;;;;;;4694302;30;20025;-82
2021/12/05 04:08:34;;;;;;;42.45;25.02;;;3.90;99.90;;;;;;4680331;30;20056;-82
2021/12/05 04:11:04;;;;;;;;;;;3.90;99.90;;;;;;4680769;30;20033;-82
2021/12/05 04:13:31;;;;;;;42.70;25.77;;;3.80;99.90;;;;;;4694561;30;19919;-82
2021/12/05 04:16:00;;;;;;;37.75;23.20;;;3.80;99.90;;;;;;4694161;30;20056;-82
2021/12/05 04:18:27;;;;;;;38.85;24.67;;;3.80;99.90;;;;;;4680168;30;20241;-82
2021/12/05 04:20:53;;;;;;;37.50;24.25;;;3.80;99.90;;;;;;4680053;30;20064;-82
2021/12/05 04:23:19;;;;;;;40.15;25.38;;;3.80;99.90;;;;;;4709911;30;20060;-82
2021/12/05 04:25:49;;;;;;;39.72;24.13;;;3.80;99.90;;;;;;4680007;30;20234;-82
2021/12/05 04:28:19;;;;;;;49.17;27.77;;;3.80;99.90;;;;;;4694351;30;20033;-82
2021/12/05 04:30:46;;;;;;;42.42;26.63;;;3.80;99.90;;;;;;4680077;30;20100;-83
2021/12/05 04:33:13;;;;;;;45.13;26.70;;;3.80;99.90;;;;;;4680240;30;20037;-82
2021/12/05 04:35:39;;;;;;;37.05;23.95;;;3.90;99.90;;;;;;4662977;30;20038;-83
2021/12/05 04:38:05;;;;;;;35.72;22.23;;;3.90;99.90;;;;;;4662836;30;20258;-82
2021/12/05 04:40:33;;;;;;;40.50;24.20;;;4.00;99.90;;;;;;4683439;30;20048;-82
2021/12/05 04:43:02;;;;;;;40.00;24.40;;;4.00;99.90;;;;;;4666373;30;20037;-82
2021/12/05 04:45:31;;;;;;;37.83;24.27;;;4.00;99.90;;;;;;4677807;30;20043;-82
2021/12/05 04:48:01;;;;;;;38.45;23.63;;;4.00;99.90;;;;;;4663084;30;20029;-82
2021/12/05 04:50:29;;;;;;;38.00;24.50;;;4.10;99.90;;;;;;4671529;30;20050;-83
2021/12/05 04:52:56;;;;;;;42.78;25.95;;;4.10;99.90;;;;;;4677000;30;20046;-82
2021/12/05 04:55:23;;;;;;;43.33;26.67;;;4.10;99.90;;;;;;4673199;30;20045;-82
2021/12/05 04:57:51;;;;;;;51.58;31.77;;;4.10;99.90;;;;;;4635118;30;20404;-82
2021/12/05 05:00:33;;;;;;;52.72;31.23;;;4.10;99.90;;;;;;4662604;30;20101;-82
2021/12/05 05:02:59;;;;;;;48.78;28.90;;;3.90;99.90;;;;;;4673621;30;20226;-82
2021/12/05 05:05:27;;;;;;;51.83;31.30;;;3.90;99.90;;;;;;4676792;30;20034;-82
2021/12/05 05:07:53;;;;;;;45.80;28.65;;;3.90;99.90;;;;;;4676274;30;20089;-82
2021/12/05 05:10:26;;;;;;;62.30;34.20;;;3.90;99.90;;;;;;4686380;30;20041;-82
2021/12/05 05:12:52;;;;;;;64.55;35.85;;;4.00;99.90;;;;;;4676690;30;20353;-82
2021/12/05 05:15:22;;;;;;;62.03;33.38;;;3.90;99.90;;;;;;4677475;30;20034;-82
2021/12/05 05:17:50;;;;;;;52.67;31.23;;;3.90;99.90;;;;;;4651712;30;20342;-83
2021/12/05 05:20:35;;;;;;;48.85;29.67;;;3.90;99.90;;;;;;4671797;30;20060;-82
2021/12/05 05:42:41;;;;;;;51.28;30.75;;;3.90;99.90;;;;;;4600181;31;20068;-82
2021/12/05 05:47:34;;;;;;;55.83;33.90;;;3.90;99.90;;;;;;4611803;31;20052;-82
2021/12/05 05:49:59;;;;;;;64.47;36.92;;;3.90;99.90;;;;;;4625395;31;20167;-82
2021/12/05 05:52:27;;;;;;;;;;;3.90;99.90;;;;;;4625389;31;20044;-82
2021/12/05 05:54:56;;;;;;;71.90;36.78;;;3.90;99.90;;;;;;4611679;31;19951;-82
2021/12/05 05:57:26;;;;;;;66.88;38.63;;;3.90;99.90;;;;;;4611808;31;20054;-82
2021/12/05 06:00:10;;;;;;;57.58;33.72;;;3.90;99.90;;;;;;4625277;31;20043;-82
2021/12/05 06:05:25;;;;;;;64.40;36.72;;;3.90;99.90;;;;;;4613692;31;20051;-82
2021/12/05 06:07:50;;;;;;;77.97;38.53;;;3.80;99.90;;;;;;4611432;31;20116;-82
2021/12/05 06:10:19;;;;;;;72.60;40.60;;;3.80;99.90;;;;;;4611196;31;20036;-82
2021/12/05 06:12:46;;;;;;;70.53;38.25;;;3.80;99.90;;;;;;4624942;31;20357;-82
2021/12/05 06:15:14;;;;;;;54.13;34.42;;;3.70;99.90;;;;;;4611449;31;20367;-82
2021/12/05 06:17:41;;;;;;;71.88;37.88;;;3.70;99.90;;;;;;4607864;31;20074;-82
2021/12/05 06:20:08;;;;;;;;;;;3.70;99.90;;;;;;4660873;30;20050;-82
2021/12/05 06:22:34;;;;;;;68.65;36.22;;;3.70;99.90;;;;;;4673694;30;19977;-82
2021/12/05 06:25:01;;;;;;;66.27;35.67;;;3.70;99.90;;;;;;4679081;30;20355;-82
2021/12/05 06:27:28;;;;;;;;;;;3.70;99.90;;;;;;4662035;30;20037;-82
2021/12/05 06:30:07;;;;;;;67.15;36.22;;;3.60;99.90;;;;;;4650299;30;19916;-82
2021/12/05 06:40:48;;;;;;;57.67;31.95;;;3.50;99.90;;;;;;4664435;30;20046;-82
2021/12/05 06:46:15;;;;;;;55.85;33.72;;;3.50;99.90;;;;;;4677894;30;20077;-82
2021/12/05 06:48:43;;;;;;;56.28;32.38;;;3.50;99.90;;;;;;4664357;30;20030;-81
2021/12/05 06:51:11;;;;;;;54.20;32.50;;;3.50;99.90;;;;;;4674691;30;20268;-82
2021/12/05 06:53:38;;;;;;;53.42;29.17;;;3.60;99.90;;;;;;4661128;30;20034;-82
2021/12/05 06:56:05;;;;;;;54.25;29.92;;;3.60;99.90;;;;;;4660557;30;20037;-82
2021/12/05 06:58:32;;;;;;;51.05;31.50;;;3.70;99.90;;;;;;4660948;30;20142;-81
2021/12/05 07:01:00;;;;;;;49.25;29.27;;;3.80;99.90;;;;;;4660480;30;20034;-82
2021/12/05 07:03:26;;;;;;;46.47;29.60;;;3.80;99.90;;;;;;4646876;30;20038;-82
2021/12/05 07:06:10;;;;;;;61.63;34.05;;;3.80;99.90;;;;;;4676100;30;20022;-82
2021/12/05 07:08:40;;;;;;;50.92;31.35;;;3.80;99.90;;;;;;4669014;30;20038;-82
2021/12/05 07:11:21;;;;;;;65.35;35.17;;;3.80;99.90;;;;;;4646967;30;20045;-82
2021/12/05 07:22:00;;;;;;;60.97;34.97;;;4.00;99.90;;;;;;4657095;30;20262;-82
2021/12/05 07:24:42;;;;;;;67.00;37.15;;;4.10;99.90;;;;;;4667174;30;20157;-82
2021/12/05 07:41:15;;;;;;;62.67;37.05;;;4.40;99.90;;;;;;4632026;30;20118;-82
2021/12/05 07:43:40;;;;;;;64.97;35.77;;;4.60;99.90;;;;;;4659159;30;20201;-82
2021/12/05 07:46:07;;;;;;;66.22;37.67;;;4.60;99.90;;;;;;4647459;30;20417;-82
2021/12/05 07:48:37;;;;;;;58.83;34.15;;;4.70;99.90;;;;;;4650221;30;20319;-82
2021/12/05 07:53:57;;;;;;;60.20;35.28;;;4.80;99.90;;;;;;4651286;30;20338;-82
2021/12/05 07:56:48;;;;;;;63.00;36.15;;;4.80;99.90;;;;;;4652288;30;20074;-82
2021/12/05 08:16:01;;;;;;;61.28;35.05;;;4.40;99.90;;;;;;4621312;31;20051;-82
2021/12/05 08:18:28;;;;;;;58.22;35.05;;;4.40;99.90;;;;;;4613522;31;20046;-82
2021/12/05 08:20:55;;;;;;;53.40;31.90;;;4.50;99.90;;;;;;4610316;31;20052;-80
2021/12/05 08:23:23;;;;;;;60.75;35.55;;;4.50;99.90;;;;;;4621838;31;20042;-82
2021/12/05 08:26:04;;;;;;;58.90;33.67;;;4.60;99.90;;;;;;4607278;31;20262;-81
2021/12/05 08:39:32;;;;;;;48.92;29.83;;;5.40;99.90;;;;;;4578181;31;20096;-80
2021/12/05 09:25:17;;;;;;;55.92;35.10;;;6.70;99.90;;;;;;4645684;30;20306;-82
2021/12/05 10:11:04;;;;;;;56.10;33.30;;;6.20;99.90;;;;;;4625906;31;20144;-81
2021/12/05 10:13:42;;;;;;;53.25;32.55;;;6.30;99.90;;;;;;4640063;30;20047;-81
2021/12/05 10:16:19;;;;;;;58.33;34.50;;;6.30;99.90;;;;;;4658458;30;20131;-81
2021/12/05 10:40:41;;;;;;;61.22;37.28;;;6.20;99.90;;;;;;4663804;30;20253;-82
2021/12/05 10:43:14;;;;;;;64.13;37.88;;;6.20;99.90;;;;;;4663364;30;20042;-82
2021/12/05 10:45:50;;;;;;;52.92;34.80;;;6.30;99.90;;;;;;4663087;30;20222;-82
2021/12/05 10:48:26;;;;;;;76.18;55.78;;;6.30;99.90;;;;;;4664285;30;20109;-82
2021/12/05 10:51:04;;;;;;;57.28;32.88;;;6.40;99.90;;;;;;4688716;30;20054;-83
2021/12/05 10:53:41;;;;;;;65.32;45.33;;;6.40;99.90;;;;;;4674966;30;20042;-83
2021/12/05 10:56:21;;;;;;;56.17;37.33;;;6.40;99.90;;;;;;4667795;30;20238;-83
2021/12/05 10:59:02;;;;;;;50.15;35.00;;;6.50;99.90;;;;;;4670141;30;20388;-83
2021/12/05 11:01:40;;;;;;;50.33;32.35;;;6.70;99.90;;;;;;4689303;30;20113;-83
2021/12/05 11:04:33;;;;;;;50.15;31.33;;;6.80;99.90;;;;;;4658344;30;20041;-83
2021/12/05 11:07:07;;;;;;;70.00;55.78;;;6.80;99.90;;;;;;4687004;30;20340;-83
2021/12/05 11:09:39;;;;;;;44.03;26.52;;;6.90;99.90;;;;;;4673342;30;20069;-84
2021/12/05 11:12:23;;;;;;;39.90;26.80;;;7.00;99.90;;;;;;4665245;30;20034;-83
2021/12/05 11:14:54;;;;;;;48.85;23.85;;;7.10;99.90;;;;;;4673344;30;20041;-83
2021/12/05 11:17:34;;;;;;;37.90;25.70;;;7.20;99.90;;;;;;4672575;30;20045;-83
2021/12/05 11:20:33;;;;;;;28.02;18.27;;;7.40;99.90;;;;;;4660311;30;20069;-83
2021/12/05 11:23:00;;;;;;;30.85;18.45;;;7.50;99.90;;;;;;4622528;31;20051;-84
2021/12/05 11:25:29;;;;;;;36.95;23.60;;;7.70;99.90;;;;;;4621196;31;20051;-83
2021/12/05 11:28:01;;;;;;;37.25;20.88;;;7.80;99.90;;;;;;4619216;31;20130;-83
2021/12/05 11:30:31;;;;;;;31.23;19.20;;;7.80;99.80;;;;;;4609899;31;20139;-84
2021/12/05 11:33:27;;;;;;;39.25;22.80;;;7.70;99.90;;;;;;4624466;31;20119;-84
2021/12/05 11:36:01;;;;;;;43.30;30.17;;;7.70;99.90;;;;;;4585570;31;20044;-83
2021/12/05 11:38:29;;;;;;;38.45;28.02;;;7.80;99.90;;;;;;4596677;31;20070;-83
2021/12/05 11:41:02;;;;;;;32.08;20.33;;;7.80;99.90;;;;;;4578226;31;20160;-83
2021/12/05 11:43:45;;;;;;;28.92;17.98;;;7.60;99.90;;;;;;4584690;31;20044;-83
2021/12/05 11:46:18;;;;;;;32.85;17.05;;;7.40;99.90;;;;;;4581146;31;20144;-83
2021/12/05 11:49:06;;;;;;;42.83;29.05;;;7.30;99.90;;;;;;4580881;31;20347;-82
2021/12/05 11:51:52;;;;;;;21.80;10.10;;;7.50;99.90;;;;;;4579337;31;20365;-82
2021/12/05 11:54:23;;;;;;;20.85;12.23;;;7.60;99.90;;;;;;4566643;31;20033;-82
2021/12/05 11:57:07;;;;;;;19.38;11.80;;;7.80;99.90;;;;;;4573996;31;20190;-83
2021/12/05 11:59:35;;;;;;;15.73;9.18;;;7.90;99.90;;;;;;4595344;31;20108;-83
2021/12/05 12:02:22;;;;;;;15.15;6.90;;;8.20;99.60;;;;;;4604465;31;20033;-83
2021/12/05 12:04:56;;;;;;;11.45;5.60;;;8.30;98.80;;;;;;4603607;31;20104;-83
2021/12/05 12:08:02;;;;;;;12.40;6.38;;;8.30;98.40;;;;;;4605903;31;20384;-83
2021/12/05 12:10:50;;;;;;;11.82;6.35;;;8.40;98.20;;;;;;4554757;31;20372;-83
2021/12/05 12:13:29;;;;;;;12.18;6.93;;;8.50;98.20;;;;;;4589776;31;20044;-83
2021/12/05 12:16:02;;;;;;;7.43;4.10;;;8.60;98.10;;;;;;4591457;31;20119;-83
2021/12/05 12:18:32;;;;;;;12.18;3.22;;;8.50;96.90;;;;;;4581442;31;20107;-83
2021/12/05 12:21:09;;;;;;;5.88;3.17;;;8.40;96.10;;;;;;4587406;31;20052;-83
2021/12/05 12:23:34;;;;;;;8.40;3.45;;;8.40;96.60;;;;;;4599798;31;20033;-83
2021/12/05 12:26:05;;;;;;;9.60;3.03;;;8.40;97.10;;;;;;4605477;31;20244;-83
2021/12/05 12:28:31;;;;;;;10.55;3.08;;;8.50;97.20;;;;;;4591524;31;20048;-83
2021/12/05 12:31:03;;;;;;;8.45;2.90;;;8.50;97.00;;;;;;4589232;31;20111;-83
2021/12/05 12:33:34;;;;;;;8.80;3.60;;;8.60;96.90;;;;;;4586753;31;20040;-83
2021/12/05 12:36:02;;;;;;;7.78;3.15;;;8.60;96.80;;;;;;4602972;31;20150;-83
2021/12/05 12:38:31;;;;;;;6.68;3.05;;;8.70;96.90;;;;;;4588015;31;20044;-82
2021/12/05 12:40:59;;;;;;;6.45;2.92;;;8.70;96.60;;;;;;4601187;31;20049;-82
2021/12/05 12:43:39;;;;;;;6.97;3.03;;;8.70;96.00;;;;;;4603587;31;20028;-82
2021/12/05 12:46:17;;;;;;;16.65;6.28;;;8.60;96.00;;;;;;4637753;30;20042;-81
2021/12/05 12:48:43;;;;;;;8.52;3.65;;;8.50;95.30;;;;;;4674192;30;20310;-81
2021/12/05 12:51:28;;;;;;;9.52;3.20;;;8.30;95.40;;;;;;4678681;30;20049;-81
2021/12/05 12:54:02;;;;;;;10.38;5.10;;;8.30;95.70;;;;;;4657315;30;20034;-81
2021/12/05 12:56:29;;;;;;;10.52;4.07;;;8.20;95.30;;;;;;4673098;30;20046;-84
2021/12/05 12:58:59;;;;;;;6.78;3.50;;;8.30;95.70;;;;;;4663459;30;20173;-84
2021/12/05 13:02:03;;;;;;;8.30;3.20;;;8.20;95.10;;;;;;4686389;30;20032;-84
2021/12/05 13:05:00;;;;;;;7.78;2.63;;;8.20;95.20;;;;;;4683702;30;20038;-84
2021/12/05 13:10:40;;;;;;;8.20;2.55;;;8.10;95.50;;;;;;4680584;30;20333;-84
2021/12/05 13:13:16;;;;;;;7.80;2.53;;;8.00;95.00;;;;;;4672958;30;20050;-83
2021/12/05 13:15:45;;;;;;;5.40;2.38;;;8.00;95.20;;;;;;4677673;30;20045;-83
2021/12/05 13:18:10;;;;;;;11.10;2.33;;;8.00;95.50;;;;;;4672691;30;20038;-84
2021/12/05 13:20:42;;;;;;;7.35;2.38;;;8.00;95.60;;;;;;4666038;30;20047;-83
2021/12/05 13:23:08;;;;;;;11.25;2.47;;;7.90;95.10;;;;;;4675932;30;20282;-83
2021/12/05 13:26:14;;;;;;;7.65;2.28;;;7.80;95.20;;;;;;4670282;30;20045;-83
2021/12/05 13:29:06;;;;;;;7.38;2.05;;;7.80;95.10;;;;;;4667620;30;20045;-83
2021/12/05 13:31:57;;;;;;;7.32;2.45;;;7.70;95.50;;;;;;4665173;30;20054;-83
2021/12/05 13:34:33;;;;;;;9.00;2.75;;;7.60;95.20;;;;;;4598854;31;20085;-83
2021/12/05 13:37:05;;;;;;;4.97;2.75;;;7.50;95.50;;;;;;4588722;31;20060;-83
2021/12/05 13:39:37;;;;;;;4.25;2.03;;;7.50;95.50;;;;;;4597430;31;20048;-82
2021/12/05 13:42:05;;;;;;;8.00;2.63;;;7.40;95.20;;;;;;4606623;31;20032;-82
2021/12/05 13:44:56;;;;;;;6.00;2.33;;;7.40;95.50;;;;;;4611593;31;20124;-81
2021/12/05 13:47:28;;;;;;;4.63;2.20;;;7.40;95.70;;;;;;4569342;31;20072;-84
2021/12/05 13:49:56;;;;;;;8.93;2.75;;;7.40;96.10;;;;;;4541201;31;20266;-83
2021/12/05 13:52:36;;;;;;;8.48;2.70;;;7.40;95.70;;;;;;4545340;31;20417;-84
2021/12/05 13:55:31;;;;;;;10.23;2.80;;;7.40;95.60;;;;;;4546526;31;20038;-84
2021/12/05 13:58:16;;;;;;;8.48;2.65;;;7.40;95.70;;;;;;4528382;31;20075;-84
2021/12/05 14:00:51;;;;;;;7.25;2.60;;;7.30;95.60;;;;;;4540598;31;20066;-84
2021/12/05 14:03:44;;;;;;;6.90;2.53;;;7.40;95.80;;;;;;4526057;31;20057;-84
2021/12/05 14:06:49;;;;;;;6.35;2.78;;;7.40;95.90;;;;;;4542021;31;20049;-82
2021/12/05 14:09:19;;;;;;;7.00;2.95;;;7.30;95.70;;;;;;4529186;31;20050;-83
2021/12/05 14:11:51;;;;;;;6.63;3.20;;;7.30;95.90;;;;;;4557623;31;20166;-83
2021/12/05 14:14:19;;;;;;;13.95;6.22;;;7.30;95.80;;;;;;4587857;31;20060;-82
2021/12/05 14:17:03;;;;;;;12.23;4.00;;;7.20;95.90;;;;;;4592792;31;20209;-83
2021/12/05 14:19:59;;;;;;;9.20;3.22;;;7.20;95.90;;;;;;4592217;31;20045;-82
2021/12/05 14:22:29;;;;;;;8.80;4.00;;;7.30;96.00;;;;;;4592739;31;20345;-82
2021/12/05 14:25:03;;;;;;;12.50;4.93;;;7.20;96.00;;;;;;4612012;31;20105;-82
2021/12/05 14:27:32;;;;;;;7.10;3.53;;;7.20;96.10;;;;;;4624024;31;20035;-82
2021/12/05 14:30:05;;;;;;;8.30;3.17;;;7.30;96.20;;;;;;4612373;31;20035;-82
2021/12/05 14:32:34;;;;;;;7.18;2.95;;;7.30;95.90;;;;;;4598967;31;20043;-82
2021/12/05 14:35:11;;;;;;;6.40;3.08;;;7.30;96.00;;;;;;4647140;30;20042;-82
2021/12/05 14:37:47;;;;;;;8.85;4.57;;;7.30;95.80;;;;;;4624526;31;20436;-83
2021/12/05 14:40:16;;;;;;;14.02;8.93;;;7.30;95.90;;;;;;4615296;31;20051;-82
2021/12/05 14:42:51;;;;;;;18.67;7.97;;;7.40;95.90;;;;;;4606864;31;20051;-82
2021/12/05 14:45:23;;;;;;;18.38;5.72;;;7.40;95.80;;;;;;4629493;30;20032;-83
2021/12/05 14:47:54;;;;;;;9.43;4.60;;;7.40;95.90;;;;;;4611563;31;20035;-82
2021/12/05 14:50:29;;;;;;;8.75;4.63;;;7.50;96.00;;;;;;4617384;31;20239;-83
2021/12/05 14:53:03;;;;;;;10.77;4.93;;;7.40;96.00;;;;;;4622340;31;20053;-83
2021/12/05 14:55:35;;;;;;;8.98;5.13;;;7.40;96.00;;;;;;4608663;31;20035;-82
2021/12/05 14:58:09;;;;;;;16.77;6.63;;;7.40;96.00;;;;;;4611306;31;20062;-83
2021/12/05 15:00:49;;;;;;;17.60;5.57;;;7.40;96.10;;;;;;4610777;31;20048;-83
2021/12/05 15:03:25;;;;;;;12.40;4.80;;;7.40;96.30;;;;;;4607527;31;20063;-83
2021/12/05 15:05:54;;;;;;;11.25;5.47;;;7.30;96.00;;;;;;4609916;31;20048;-83
2021/12/05 15:08:23;;;;;;;14.68;7.07;;;7.20;96.20;;;;;;4641638;30;20057;-83
2021/12/05 15:10:55;;;;;;;28.60;5.95;;;7.20;96.50;;;;;;4681853;30;20030;-84
2021/12/05 15:13:58;;;;;;;;;;;;;;;;;;;;;
2021/12/05 15:21:11;;;;;;;10.52;6.03;;;7.10;97.20;;;;;;4572018;31;20045;-83
2021/12/05 15:24:31;;;;;;;16.27;6.90;;;7.00;97.60;;;;;;4510546;31;20042;-84
2021/12/05 15:27:20;;;;;;;11.10;6.40;;;7.00;98.00;;;;;;4515386;31;20408;-84
2021/12/05 15:30:15;;;;;;;;;;;;;;;;;;;;;
2021/12/05 15:33:59;;;;;;;14.63;7.15;;;6.90;98.50;;;;;;4486135;31;20413;-85
2021/12/05 15:40:32;;;;;;;14.45;8.32;;;6.70;99.30;;;;;;4488677;32;20051;-84
2021/12/05 15:43:13;;;;;;;12.05;7.03;;;6.60;99.80;;;;;;4475008;32;20082;-84
2021/12/05 15:45:50;;;;;;;17.23;8.75;;;6.60;99.90;;;;;;4479711;32;20043;-84
2021/12/05 16:00:43;;;;;;;17.25;10.20;;;6.60;99.90;;;;;;4464683;31;20125;-84
2021/12/05 16:03:28;;;;;;;17.40;9.15;;;6.50;99.90;;;;;;4519459;31;20047;-84
2021/12/05 16:06:52;;;;;;;;;;;;;;;;;;;;;
2021/12/05 16:14:12;;;;;;;18.45;9.65;;;6.60;99.90;;;;;;4490504;31;20065;-84
2021/12/05 16:21:59;;;;;;;;;;;;;;;;;;;;;
2021/12/05 16:25:26;;;;;;;21.30;10.52;;;6.50;99.90;;;;;;4370710;32;20099;-84
2021/12/05 16:28:29;;;;;;;15.48;10.13;;;6.40;99.90;;;;;;4370707;32;20361;-84
2021/12/05 16:34:52;;;;;;;19.25;10.35;;;6.50;99.90;;;;;;4405350;32;20052;-83
2021/12/05 16:37:22;;;;;;;19.08;9.20;;;6.40;99.90;;;;;;4387103;32;20636;-83
2021/12/05 16:40:11;;;;;;;13.95;9.60;;;6.40;99.90;;;;;;4398792;32;20058;-84
2021/12/05 16:58:34;;;;;;;19.70;10.82;;;6.50;99.90;;;;;;4524587;31;20155;-84
2021/12/05 18:53:51;;;;;;;;;;;5.60;99.90;;;;;;4693394;30;20361;-84
2021/12/05 18:56:17;;;;;;;17.23;9.13;;;5.70;99.90;;;;;;4693432;30;19982;-84
2021/12/05 18:58:44;;;;;;;17.67;9.63;;;5.70;99.90;;;;;;4693641;30;20114;-84
2021/12/05 19:06:49;;;;;;;16.90;9.30;;;5.80;99.90;;;;;;4689250;30;20084;-84
2021/12/05 19:09:40;;;;;;;20.80;9.65;;;5.80;99.90;;;;;;4673498;30;20049;-84
2021/12/05 19:12:11;;;;;;;23.17;11.20;;;5.80;99.90;;;;;;4705113;30;20033;-84
2021/12/05 19:14:47;;;;;;;25.10;11.20;;;5.80;99.90;;;;;;4680283;30;20060;-84
2021/12/05 19:17:19;;;;;;;20.27;9.48;;;5.90;99.90;;;;;;4672888;30;20108;-84
2021/12/05 19:19:49;;;;;;;23.33;10.73;;;5.90;99.90;;;;;;4674370;30;20046;-84
2021/12/05 19:22:19;;;;;;;22.42;10.25;;;5.90;99.90;;;;;;4675797;30;20045;-84
2021/12/05 19:24:48;;;;;;;23.10;10.32;;;5.80;99.90;;;;;;4678365;30;20045;-85
2021/12/05 19:27:16;;;;;;;22.02;10.73;;;5.90;99.90;;;;;;4675131;30;20070;-85
2021/12/05 19:29:43;;;;;;;;;;;5.80;99.90;;;;;;4669976;30;20045;-84
2021/12/05 19:32:09;;;;;;;18.88;10.02;;;5.80;99.90;;;;;;4694298;30;19926;-84
2021/12/05 19:34:35;;;;;;;16.23;9.50;;;5.70;99.90;;;;;;4662510;30;20046;-84
2021/12/05 19:37:03;;;;;;;26.25;10.90;;;5.70;99.90;;;;;;4657435;30;20092;-84
2021/12/05 19:39:34;;;;;;;19.10;9.80;;;5.70;99.90;;;;;;4688909;30;20400;-84
2021/12/05 19:42:02;;;;;;;19.60;10.15;;;5.80;99.90;;;;;;4661444;30;20225;-84
2021/12/05 19:44:28;;;;;;;19.00;9.60;;;5.80;99.90;;;;;;4694192;30;20040;-84
2021/12/05 19:46:56;;;;;;;18.67;10.23;;;5.90;99.90;;;;;;4671784;30;20057;-84
2021/12/05 19:49:22;;;;;;;39.42;19.05;;;5.90;99.90;;;;;;4678279;30;20342;-84
2021/12/05 19:51:48;;;;;;;38.55;16.25;;;5.90;99.90;;;;;;4681118;30;20065;-84
2021/12/05 19:54:15;;;;;;;54.58;19.48;;;6.00;99.90;;;;;;4662437;30;20052;-83
2021/12/05 19:56:43;;;;;;;78.90;26.73;;;5.90;99.90;;;;;;4657417;30;20050;-84
2021/12/05 19:59:12;;;;;;;40.92;15.80;;;5.90;99.90;;;;;;4652815;30;20042;-84
2021/12/05 20:01:38;;;;;;;33.83;16.88;;;5.90;99.90;;;;;;4663052;30;20033;-84
2021/12/05 20:04:05;;;;;;;24.38;12.50;;;5.90;99.90;;;;;;4661261;30;20229;-84
2021/12/05 20:06:32;;;;;;;25.52;12.02;;;5.90;99.90;;;;;;4647974;30;20124;-84
2021/12/05 20:08:59;;;;;;;23.42;10.85;;;5.90;99.90;;;;;;4659035;30;20041;-84
2021/12/05 20:11:25;;;;;;;22.08;11.02;;;5.90;99.90;;;;;;4670579;30;20038;-84
2021/12/05 20:13:57;;;;;;;24.05;11.27;;;5.90;99.90;;;;;;4651367;30;20069;-84
2021/12/05 20:16:25;;;;;;;22.30;12.38;;;5.90;99.90;;;;;;4664485;30;20253;-84
2021/12/05 20:18:51;;;;;;;27.42;11.25;;;5.90;99.90;;;;;;4662840;30;20079;-84
2021/12/05 20:21:17;;;;;;;25.20;11.93;;;5.90;99.90;;;;;;4655754;30;20101;-84
2021/12/05 20:23:43;;;;;;;26.08;12.18;;;6.00;99.90;;;;;;4648475;30;20386;-84
2021/12/05 20:26:13;;;;;;;24.80;12.90;;;6.00;99.90;;;;;;4644439;30;20538;-84
2021/12/05 20:28:39;;;;;;;24.58;11.90;;;6.00;99.90;;;;;;4673243;30;20048;-84
2021/12/05 20:31:05;;;;;;;26.92;11.98;;;6.10;99.90;;;;;;4658973;30;20104;-84
2021/12/05 20:33:31;;;;;;;26.45;12.02;;;6.10;99.90;;;;;;4647794;30;20058;-84
2021/12/05 20:35:58;;;;;;;24.90;11.85;;;6.10;99.90;;;;;;4662018;30;20046;-83
2021/12/05 20:38:24;;;;;;;19.83;10.70;;;6.10;99.90;;;;;;4672234;30;20052;-83
2021/12/05 20:40:50;;;;;;;19.48;10.20;;;6.10;99.90;;;;;;4658344;30;20066;-84
2021/12/05 20:43:18;;;;;;;16.75;10.88;;;6.00;99.90;;;;;;4643487;30;20352;-83
2021/12/05 20:45:45;;;;;;;25.33;10.95;;;6.00;99.90;;;;;;4656717;30;20273;-84
2021/12/05 20:48:12;;;;;;;21.38;11.02;;;6.10;99.90;;;;;;4663698;30;20372;-83
2021/12/05 20:50:39;;;;;;;23.92;11.25;;;6.10;99.90;;;;;;4661969;30;20049;-83
2021/12/05 20:53:07;;;;;;;23.15;11.63;;;6.10;99.90;;;;;;4658685;30;20112;-83
2021/12/05 20:55:33;;;;;;;22.85;10.40;;;6.00;99.90;;;;;;4672876;30;20105;-84
2021/12/05 20:58:02;;;;;;;22.70;10.37;;;6.00;99.90;;;;;;4661760;30;20065;-84
2021/12/05 21:00:31;;;;;;;21.00;10.02;;;6.00;99.90;;;;;;4660081;30;20115;-84
